Main page
METAR-TAF:

METAR-TAF

Airports :

Sallisaw Municipal Airport

Sallisaw, Oklahoma, United States

latitude: 35-26-17N, longitude: 094-48-10W, elevation: 528 ft

Current weather observation

The report was made 19 minutes ago, at 02:35 UTC
Calm wind
Temperature 86°F
Humidity 70%
Pressure 29.87 in. Hg
Visibility: 10 miles
Clear sky

METAR: KJSV 250235Z AUTO 00000KT 10SM CLR 30/24 A2987 RMK AO2

Time: 21:54 (02:54 UTC)


TAF: missing

Weather observations and forecasts of more than 4000 airports (METAR and TAF reports).

The available stations are represented by yellow and red dots on the map.

Hover mouse over dot to see the name of the station.

Then click to see weather observations and forecasts.

To change the map : click on the green buttons with a black cross to zoom in, on the green button with a dash to zoom out, or on the green arrows for adjacent maps.


METAR-TAF: